createdAt,value
2022-08-17T00:00:03.749Z,16.52
2022-08-17T00:02:31.331Z,15.80
2022-08-17T00:05:04.055Z,16.30
2022-08-17T00:07:31.028Z,16.13
2022-08-17T00:09:58.116Z,15.93
2022-08-17T00:12:42.721Z,16.20
2022-08-17T00:15:13.606Z,16.77
2022-08-17T00:17:42.510Z,17.52
2022-08-17T00:20:12.070Z,16.88
2022-08-17T00:22:39.119Z,16.65
2022-08-17T00:25:13.075Z,17.25
2022-08-17T00:27:40.480Z,16.50
2022-08-17T00:30:11.506Z,16.98
2022-08-17T00:33:22.932Z,18.05
2022-08-17T00:35:35.132Z,17.10
2022-08-17T00:38:04.199Z,18.52
2022-08-17T00:40:44.507Z,15.93
2022-08-17T00:43:31.300Z,16.55
2022-08-17T00:46:01.654Z,17.23
2022-08-17T00:48:31.366Z,16.77
2022-08-17T00:51:18.138Z,16.60
2022-08-17T00:53:53.629Z,17.10
2022-08-17T00:56:33.321Z,17.75
2022-08-17T00:59:02.746Z,17.10
2022-08-17T01:01:30.306Z,16.35
2022-08-17T01:04:00.012Z,16.50
2022-08-17T01:06:28.339Z,15.60
2022-08-17T01:08:58.097Z,17.45
2022-08-17T01:11:26.545Z,17.10
2022-08-17T01:13:53.828Z,16.95
2022-08-17T01:16:29.174Z,17.38
2022-08-17T01:19:05.173Z,17.75
2022-08-17T01:21:58.453Z,17.02
2022-08-17T01:24:27.915Z,16.75
2022-08-17T01:26:57.715Z,17.15
2022-08-17T01:29:25.805Z,16.95
2022-08-17T01:31:57.192Z,16.75
2022-08-17T01:34:28.237Z,19.02
2022-08-17T01:37:09.545Z,18.70
2022-08-17T01:39:45.594Z,19.05
2022-08-17T01:42:53.831Z,18.83
2022-08-17T01:45:26.664Z,18.83
2022-08-17T01:47:54.492Z,19.38
2022-08-17T01:50:29.333Z,19.65
2022-08-17T01:53:15.528Z,18.40
2022-08-17T01:55:51.736Z,18.35
2022-08-17T01:58:20.259Z,19.73
2022-08-17T02:01:00.650Z,18.70
2022-08-17T02:03:30.419Z,18.95
2022-08-17T02:05:57.973Z,19.80
2022-08-17T02:08:38.873Z,17.73
2022-08-17T02:11:17.864Z,18.48
2022-08-17T02:13:57.971Z,18.15
2022-08-17T02:16:37.441Z,18.08
2022-08-17T02:19:12.712Z,17.00
2022-08-17T02:21:42.024Z,16.40
2022-08-17T02:24:15.686Z,18.48
2022-08-17T02:26:42.788Z,16.55
2022-08-17T02:29:09.844Z,17.65
2022-08-17T02:31:37.878Z,17.75
2022-08-17T02:34:05.468Z,17.92
2022-08-17T02:36:34.268Z,18.35
2022-08-17T02:39:05.275Z,16.52
2022-08-17T02:41:33.024Z,17.45
2022-08-17T02:44:00.611Z,18.50
2022-08-17T02:46:28.371Z,18.05
2022-08-17T02:48:55.771Z,18.65
2022-08-17T02:51:23.260Z,17.33
2022-08-17T02:53:50.297Z,15.23
2022-08-17T02:56:17.458Z,17.00
2022-08-17T02:58:44.429Z,16.85
2022-08-17T03:01:12.792Z,17.00
2022-08-17T03:03:40.989Z,16.92
2022-08-17T03:06:08.795Z,16.02
2022-08-17T03:08:37.451Z,17.08
2022-08-17T03:11:04.511Z,16.27
2022-08-17T03:13:31.507Z,16.40
2022-08-17T03:15:58.910Z,16.15
2022-08-17T03:18:27.970Z,16.23
2022-08-17T03:20:59.195Z,16.25
2022-08-17T03:23:27.600Z,17.17
2022-08-17T03:25:57.282Z,17.30
2022-08-17T03:28:25.163Z,16.38
2022-08-17T03:30:52.855Z,16.85
2022-08-17T03:33:20.015Z,16.02
2022-08-17T03:35:47.553Z,16.23
2022-08-17T03:38:17.377Z,15.68
2022-08-17T03:40:56.941Z,17.27
2022-08-17T03:43:32.594Z,16.05
2022-08-17T03:46:27.704Z,16.00
2022-08-17T03:49:15.462Z,16.20
2022-08-17T03:52:01.347Z,15.30
2022-08-17T03:54:46.918Z,15.35
2022-08-17T03:57:13.920Z,14.85
2022-08-17T03:59:41.051Z,16.83
2022-08-17T04:02:13.060Z,15.38
2022-08-17T04:04:40.284Z,16.08
2022-08-17T04:07:07.676Z,14.68
2022-08-17T04:09:35.019Z,14.88
2022-08-17T04:12:04.885Z,15.35
2022-08-17T04:14:45.993Z,14.10
2022-08-17T04:17:21.261Z,14.85
2022-08-17T04:19:48.293Z,13.70
2022-08-17T04:22:31.378Z,15.00
2022-08-17T04:25:08.046Z,14.23
2022-08-17T04:27:35.209Z,14.98
2022-08-17T04:30:03.183Z,13.98
2022-08-17T04:33:00.767Z,13.00
2022-08-17T04:35:21.693Z,12.65
2022-08-17T04:37:48.964Z,13.57
2022-08-17T04:40:35.449Z,12.73
2022-08-17T04:43:12.315Z,12.18
2022-08-17T04:45:55.281Z,12.45
2022-08-17T04:48:27.905Z,13.15
2022-08-17T04:51:10.163Z,13.50
2022-08-17T04:53:40.030Z,12.38
2022-08-17T04:56:08.099Z,13.15
2022-08-17T04:58:50.146Z,11.15
2022-08-17T05:01:23.857Z,12.35
2022-08-17T05:03:56.337Z,12.07
2022-08-17T05:06:24.173Z,9.75
2022-08-17T05:08:51.214Z,10.95
2022-08-17T05:11:18.481Z,9.88
2022-08-17T05:13:45.459Z,10.23
2022-08-17T05:16:12.591Z,9.13
2022-08-17T05:18:39.594Z,10.05
2022-08-17T05:21:07.075Z,10.48
2022-08-17T05:23:43.070Z,8.77
2022-08-17T05:26:25.760Z,9.70
2022-08-17T05:28:57.301Z,10.38
2022-08-17T05:31:29.558Z,10.45
2022-08-17T05:33:56.808Z,9.25
2022-08-17T05:36:41.742Z,9.63
2022-08-17T05:39:16.834Z,9.10
2022-08-17T05:41:47.919Z,10.05
2022-08-17T05:44:16.117Z,9.02
2022-08-17T05:46:52.006Z,8.93
2022-08-17T05:49:27.719Z,9.55
2022-08-17T05:52:26.992Z,8.10
2022-08-17T05:55:10.633Z,8.35
2022-08-17T05:58:18.714Z,8.88
2022-08-17T06:01:09.520Z,9.35
2022-08-17T06:04:10.367Z,8.48
2022-08-17T06:06:42.457Z,8.48
2022-08-17T06:09:35.087Z,8.45
2022-08-17T06:12:28.030Z,8.73
2022-08-17T06:15:16.117Z,9.68
2022-08-17T06:17:43.784Z,9.35
2022-08-17T06:20:15.982Z,8.98
2022-08-17T06:22:58.815Z,8.60
2022-08-17T06:25:49.803Z,9.73
2022-08-17T06:28:29.977Z,9.02
2022-08-17T06:31:06.717Z,8.48
2022-08-17T06:33:39.446Z,8.32
2022-08-17T06:36:16.138Z,8.32
2022-08-17T06:39:26.788Z,9.07
2022-08-17T06:42:03.361Z,8.07
2022-08-17T06:45:06.497Z,8.50
2022-08-17T06:47:47.512Z,8.57
2022-08-17T06:50:35.976Z,9.02
2022-08-17T06:53:19.755Z,9.13
2022-08-17T06:56:13.609Z,8.30
2022-08-17T06:58:43.717Z,8.57
2022-08-17T07:01:20.900Z,7.80
2022-08-17T07:03:55.704Z,8.23
2022-08-17T07:06:32.922Z,7.45
2022-08-17T07:09:35.543Z,6.97
2022-08-17T07:12:39.549Z,6.97
2022-08-17T07:15:20.589Z,6.57
2022-08-17T07:17:48.492Z,6.72
2022-08-17T07:20:21.223Z,6.38
2022-08-17T07:23:12.988Z,6.28
2022-08-17T07:25:40.176Z,6.70
2022-08-17T07:28:07.899Z,5.57
2022-08-17T07:30:49.235Z,6.47
2022-08-17T07:33:26.140Z,5.93
2022-08-17T07:35:53.647Z,6.75
2022-08-17T07:38:33.142Z,6.55
2022-08-17T07:41:07.285Z,6.15
2022-08-17T07:43:40.116Z,6.05
2022-08-17T07:46:53.219Z,5.80
2022-08-17T07:49:38.360Z,6.80
2022-08-17T07:52:47.446Z,6.60
2022-08-17T07:54:58.677Z,5.43
2022-08-17T07:57:36.163Z,5.75
2022-08-17T08:00:12.707Z,5.47
2022-08-17T08:02:57.807Z,5.88
2022-08-17T08:05:49.744Z,6.07
2022-08-17T08:08:33.724Z,6.40
2022-08-17T08:11:08.956Z,5.93
2022-08-17T08:13:43.879Z,6.07
2022-08-17T08:16:16.729Z,6.43
2022-08-17T08:18:55.529Z,6.35
2022-08-17T08:22:26.368Z,6.22
2022-08-17T08:25:25.467Z,6.78
2022-08-17T08:28:07.436Z,6.38
2022-08-17T08:30:46.696Z,6.78
2022-08-17T08:33:32.029Z,6.80
2022-08-17T08:37:02.149Z,6.20
2022-08-17T08:39:39.896Z,6.45
2022-08-17T08:42:27.508Z,6.00
2022-08-17T08:45:24.791Z,6.70
2022-08-17T08:48:07.026Z,5.63
2022-08-17T08:51:00.837Z,6.18
2022-08-17T08:54:11.954Z,5.82
2022-08-17T08:57:21.578Z,6.15
2022-08-17T09:00:16.227Z,5.80
2022-08-17T09:03:07.352Z,6.55
2022-08-17T09:06:39.590Z,5.60
2022-08-17T09:09:32.942Z,5.68
2022-08-17T09:12:21.720Z,5.13
2022-08-17T09:15:01.249Z,6.15
2022-08-17T09:18:14.611Z,6.28
2022-08-17T09:20:54.042Z,5.85
2022-08-17T09:23:59.474Z,6.10
2022-08-17T09:26:54.453Z,5.45
2022-08-17T09:29:26.410Z,5.28
2022-08-17T09:32:03.612Z,5.82
2022-08-17T09:34:52.643Z,5.68
2022-08-17T09:37:58.361Z,5.50
2022-08-17T09:40:49.766Z,6.47
2022-08-17T09:43:55.321Z,6.03
2022-08-17T09:46:31.098Z,5.50
2022-08-17T09:49:10.663Z,5.50
2022-08-17T09:51:58.072Z,5.00
2022-08-17T09:54:41.117Z,5.95
2022-08-17T09:57:32.316Z,5.22
2022-08-17T10:00:13.422Z,5.90
2022-08-17T10:02:55.216Z,5.55
2022-08-17T10:05:51.279Z,6.00
2022-08-17T10:08:23.489Z,5.43
2022-08-17T10:11:08.220Z,6.05
2022-08-17T10:14:02.242Z,5.30
2022-08-17T10:17:04.183Z,5.30
2022-08-17T10:19:53.287Z,5.82
2022-08-17T10:22:55.139Z,5.55
2022-08-17T10:25:54.741Z,5.63
2022-08-17T10:28:31.506Z,5.70
2022-08-17T10:31:33.125Z,5.90
2022-08-17T10:34:53.470Z,6.10
2022-08-17T10:37:28.277Z,6.55
2022-08-17T10:40:19.829Z,5.28
2022-08-17T10:43:17.240Z,6.35
2022-08-17T10:46:39.553Z,5.88
2022-08-17T10:49:18.587Z,5.78
2022-08-17T10:51:54.359Z,5.32
2022-08-17T10:54:24.328Z,5.45
2022-08-17T10:56:56.759Z,6.60
2022-08-17T10:59:35.981Z,5.70
2022-08-17T11:02:18.991Z,5.93
2022-08-17T11:05:03.247Z,5.20
2022-08-17T11:08:17.928Z,5.97
2022-08-17T11:11:20.227Z,5.47
2022-08-17T11:14:13.865Z,5.05
2022-08-17T11:17:31.770Z,6.35
2022-08-17T11:20:35.813Z,5.60
2022-08-17T11:23:31.726Z,5.80
2022-08-17T11:26:04.193Z,5.90
2022-08-17T11:28:50.365Z,5.82
2022-08-17T11:31:39.970Z,5.72
2022-08-17T11:34:19.771Z,6.13
2022-08-17T11:37:36.269Z,5.75
2022-08-17T11:40:46.449Z,5.60
2022-08-17T11:43:56.020Z,5.55
2022-08-17T11:47:18.119Z,5.68
2022-08-17T11:50:38.659Z,5.28
2022-08-17T11:53:06.577Z,5.75
2022-08-17T11:55:37.538Z,5.82
2022-08-17T11:58:29.324Z,5.47
2022-08-17T12:01:02.120Z,5.68
2022-08-17T12:03:32.031Z,6.30
2022-08-17T12:06:19.889Z,5.95
2022-08-17T12:09:01.477Z,6.18
2022-08-17T12:11:55.125Z,5.68
2022-08-17T12:15:05.937Z,6.65
2022-08-17T12:17:41.206Z,5.72
2022-08-17T12:20:40.288Z,6.18
2022-08-17T12:23:32.932Z,5.63
2022-08-17T12:26:11.839Z,5.88
2022-08-17T12:28:44.254Z,5.55
2022-08-17T12:31:27.211Z,6.43
2022-08-17T12:33:54.679Z,5.97
2022-08-17T12:36:28.470Z,5.82
2022-08-17T12:39:12.797Z,5.95
2022-08-17T12:41:44.933Z,6.05
2022-08-17T12:44:12.325Z,5.82
2022-08-17T12:47:22.772Z,7.10
2022-08-17T12:49:54.010Z,6.47
2022-08-17T12:52:29.407Z,6.07
2022-08-17T12:55:06.989Z,5.97
2022-08-17T12:57:46.946Z,6.28
2022-08-17T13:00:35.219Z,6.30
2022-08-17T13:03:13.351Z,6.03
2022-08-17T13:05:54.278Z,6.43
2022-08-17T13:08:36.725Z,6.32
2022-08-17T13:11:18.510Z,5.95
2022-08-17T13:13:56.089Z,6.15
2022-08-17T13:16:28.320Z,5.32
2022-08-17T13:19:39.857Z,6.30
2022-08-17T13:22:12.783Z,5.80
2022-08-17T13:24:58.261Z,6.30
2022-08-17T13:27:29.169Z,6.30
2022-08-17T13:30:00.985Z,5.90
2022-08-17T13:32:31.102Z,6.68
2022-08-17T13:35:15.510Z,5.97
2022-08-17T13:38:08.639Z,6.60
2022-08-17T13:40:53.473Z,5.45
2022-08-17T13:43:50.558Z,6.30
2022-08-17T13:46:26.632Z,6.38
2022-08-17T13:49:09.807Z,5.68
2022-08-17T13:51:44.903Z,6.95
2022-08-17T13:54:51.165Z,6.78
2022-08-17T13:57:25.191Z,5.78
2022-08-17T14:00:17.931Z,5.75
2022-08-17T14:02:44.909Z,6.25
2022-08-17T14:05:11.893Z,6.20
2022-08-17T14:07:40.832Z,6.85
2022-08-17T14:10:17.887Z,5.43
2022-08-17T14:12:45.808Z,6.10
2022-08-17T14:15:16.939Z,6.45
2022-08-17T14:17:44.404Z,6.45
2022-08-17T14:20:13.191Z,6.00
2022-08-17T14:22:46.403Z,6.75
2022-08-17T14:25:22.988Z,6.30
2022-08-17T14:27:52.977Z,6.93
2022-08-17T14:30:25.699Z,6.32
2022-08-17T14:32:54.826Z,6.30
2022-08-17T14:35:23.918Z,6.25
2022-08-17T14:37:52.735Z,6.65
2022-08-17T14:40:22.657Z,6.60
2022-08-17T14:42:50.038Z,6.22
2022-08-17T14:45:31.926Z,6.38
2022-08-17T14:48:04.116Z,6.72
2022-08-17T14:50:31.839Z,7.15
2022-08-17T14:52:59.176Z,7.30
2022-08-17T14:55:28.409Z,7.45
2022-08-17T14:57:55.366Z,6.57
2022-08-17T15:00:22.610Z,6.18
2022-08-17T15:02:58.118Z,6.35
2022-08-17T15:05:33.641Z,6.47
2022-08-17T15:08:02.588Z,6.65
2022-08-17T15:10:30.703Z,6.40
2022-08-17T15:12:58.484Z,6.63
2022-08-17T15:15:26.313Z,7.18
2022-08-17T15:17:53.388Z,6.68
2022-08-17T15:20:27.956Z,7.53
2022-08-17T15:22:56.113Z,6.10
2022-08-17T15:25:25.906Z,7.13
2022-08-17T15:27:53.775Z,7.28
2022-08-17T15:30:21.474Z,6.72
2022-08-17T15:32:54.470Z,7.43
2022-08-17T15:35:27.514Z,6.93
2022-08-17T15:38:11.579Z,7.22
2022-08-17T15:40:44.310Z,7.32
2022-08-17T15:43:27.291Z,6.75
2022-08-17T15:46:05.698Z,7.57
2022-08-17T15:48:42.105Z,7.07
2022-08-17T15:51:18.132Z,6.85
2022-08-17T15:53:52.262Z,6.82
2022-08-17T15:56:19.938Z,6.85
2022-08-17T15:58:49.140Z,7.40
2022-08-17T16:03:14.371Z,7.13
2022-08-17T16:04:27.244Z,6.25
2022-08-17T16:10:55.501Z,6.75
2022-08-17T16:13:24.108Z,6.95
2022-08-17T16:15:57.305Z,7.22
2022-08-17T16:18:31.037Z,25.00
2022-08-17T16:21:24.244Z,39.03
2022-08-17T16:24:04.603Z,8.45
2022-08-17T16:26:33.612Z,19.63
2022-08-17T16:29:04.372Z,8.38
2022-08-17T16:31:32.313Z,8.05
2022-08-17T16:34:17.876Z,7.68
2022-08-17T16:36:55.044Z,8.18
2022-08-17T16:39:26.488Z,7.35
2022-08-17T16:41:53.615Z,7.93
2022-08-17T16:44:21.793Z,7.85
2022-08-17T16:46:50.440Z,7.90
2022-08-17T16:49:25.711Z,8.23
2022-08-17T16:52:06.244Z,7.82
2022-08-17T16:54:35.492Z,8.60
2022-08-17T16:57:05.247Z,8.63
2022-08-17T16:59:42.162Z,7.97
2022-08-17T17:02:14.048Z,7.72
2022-08-17T17:05:00.064Z,8.45
2022-08-17T17:08:12.838Z,7.50
2022-08-17T17:10:52.720Z,9.10
2022-08-17T17:13:50.848Z,8.52
2022-08-17T17:17:01.073Z,8.23
2022-08-17T17:19:35.827Z,8.15
2022-08-17T17:22:18.860Z,8.05
2022-08-17T17:25:07.563Z,8.00
2022-08-17T17:27:53.180Z,8.70
2022-08-17T17:30:48.392Z,8.60
2022-08-17T17:34:03.857Z,9.88
2022-08-17T17:36:40.864Z,8.65
2022-08-17T17:39:17.686Z,7.85
2022-08-17T17:41:58.903Z,8.40
2022-08-17T17:44:33.202Z,7.43
2022-08-17T17:47:03.897Z,9.20
2022-08-17T17:49:38.854Z,9.13
2022-08-17T17:53:08.928Z,8.60
2022-08-17T17:55:51.805Z,8.27
2022-08-17T17:58:42.637Z,9.27
2022-08-17T18:01:28.448Z,9.68
2022-08-17T18:04:32.657Z,9.20
2022-08-17T18:07:33.988Z,9.55
2022-08-17T18:10:30.104Z,9.48
2022-08-17T18:13:53.399Z,9.55
2022-08-17T18:16:20.674Z,10.05
2022-08-17T18:18:50.080Z,10.32
2022-08-17T18:21:29.247Z,9.88
2022-08-17T18:24:02.881Z,9.32
2022-08-17T18:26:52.667Z,10.55
2022-08-17T18:29:28.030Z,10.63
2022-08-17T18:32:15.328Z,9.95
2022-08-17T18:34:47.725Z,9.98
2022-08-17T18:37:40.872Z,10.77
2022-08-17T18:40:17.017Z,9.73
2022-08-17T18:43:10.370Z,10.25
2022-08-17T18:45:50.198Z,9.85
2022-08-17T18:48:41.966Z,11.40
2022-08-17T18:51:42.892Z,10.55
2022-08-17T18:54:19.364Z,10.88
2022-08-17T18:56:59.178Z,10.73
2022-08-17T18:59:41.352Z,10.73
2022-08-17T19:02:20.713Z,12.07
2022-08-17T19:05:10.606Z,11.15
2022-08-17T19:07:47.444Z,11.15
2022-08-17T19:10:28.809Z,11.60
2022-08-17T19:13:23.953Z,10.40
2022-08-17T19:16:20.271Z,10.98
2022-08-17T19:19:49.378Z,11.80
2022-08-17T19:22:30.931Z,10.63
2022-08-17T19:25:16.046Z,11.07
2022-08-17T19:27:57.293Z,10.85
2022-08-17T19:30:25.187Z,11.43
2022-08-17T19:32:53.112Z,11.98
2022-08-17T19:35:22.910Z,10.98
2022-08-17T19:38:15.752Z,12.23
2022-08-17T19:41:34.093Z,12.65
2022-08-17T19:44:19.067Z,12.40
2022-08-17T19:47:19.580Z,12.15
2022-08-17T19:50:11.373Z,11.80
2022-08-17T19:52:52.800Z,11.85
2022-08-17T19:55:43.563Z,12.07
2022-08-17T19:58:40.060Z,11.38
2022-08-17T20:01:13.908Z,12.25
2022-08-17T20:04:31.830Z,12.48
2022-08-17T20:07:26.222Z,11.90
2022-08-17T20:10:12.004Z,12.50
2022-08-17T20:12:42.656Z,12.35
2022-08-17T20:15:17.853Z,12.57
2022-08-17T20:17:47.635Z,11.65
2022-08-17T20:20:57.714Z,11.98
2022-08-17T20:24:04.619Z,12.90
2022-08-17T20:27:17.995Z,11.32
2022-08-17T20:30:29.697Z,12.07
2022-08-17T20:32:58.984Z,12.55
2022-08-17T20:35:38.924Z,12.02
2022-08-17T20:38:41.913Z,11.13
2022-08-17T20:41:22.443Z,12.38
2022-08-17T20:43:59.022Z,12.70
2022-08-17T20:46:38.286Z,12.32
2022-08-17T20:49:14.598Z,12.20
2022-08-17T20:52:01.429Z,11.60
2022-08-17T20:54:53.830Z,11.95
2022-08-17T20:57:32.820Z,11.75
2022-08-17T21:00:17.125Z,11.13
2022-08-17T21:02:50.610Z,12.10
2022-08-17T21:06:00.438Z,12.23
2022-08-17T21:08:35.892Z,12.05
2022-08-17T21:12:03.262Z,12.10
2022-08-17T21:14:34.176Z,12.68
2022-08-17T21:17:26.400Z,13.05
2022-08-17T21:20:32.270Z,12.90
2022-08-17T21:23:13.759Z,11.60
2022-08-17T21:26:14.446Z,11.88
2022-08-17T21:29:31.020Z,12.05
2022-08-17T21:31:59.536Z,12.10
2022-08-17T21:34:35.613Z,12.27
2022-08-17T21:37:22.291Z,11.95
2022-08-17T21:40:01.764Z,12.50
2022-08-17T21:42:36.069Z,13.02
2022-08-17T21:45:32.191Z,12.77
2022-08-17T21:48:27.430Z,13.40
2022-08-17T21:51:10.573Z,11.88
2022-08-17T21:53:51.461Z,13.02
2022-08-17T21:56:35.098Z,12.10
2022-08-17T21:59:34.721Z,12.50
2022-08-17T22:02:28.433Z,13.43
2022-08-17T22:05:02.906Z,13.50
2022-08-17T22:07:46.389Z,12.82
2022-08-17T22:10:42.344Z,12.77
2022-08-17T22:13:22.216Z,13.38
2022-08-17T22:16:28.164Z,13.50
2022-08-17T22:18:59.013Z,14.25
2022-08-17T22:21:26.365Z,13.23
2022-08-17T22:24:07.352Z,14.07
2022-08-17T22:27:07.556Z,14.20
2022-08-17T22:29:58.402Z,14.88
2022-08-17T22:32:41.529Z,14.60
2022-08-17T22:35:34.995Z,14.98
2022-08-17T22:38:20.246Z,14.23
2022-08-17T22:40:53.973Z,13.98
2022-08-17T22:43:26.423Z,13.40
2022-08-17T22:45:58.672Z,14.13
2022-08-17T22:48:29.655Z,14.65
2022-08-17T22:51:12.612Z,14.38
2022-08-17T22:54:13.147Z,14.15
2022-08-17T22:57:31.603Z,14.63
2022-08-17T23:00:00.254Z,14.60
2022-08-17T23:02:34.152Z,13.98
2022-08-17T23:05:13.071Z,13.90
2022-08-17T23:07:42.503Z,15.25
2022-08-17T23:10:11.776Z,15.40
2022-08-17T23:12:39.980Z,14.15
2022-08-17T23:15:19.114Z,15.32
2022-08-17T23:17:46.460Z,15.73
2022-08-17T23:20:17.931Z,15.15
2022-08-17T23:22:51.308Z,15.90
2022-08-17T23:25:33.654Z,15.23
2022-08-17T23:28:03.546Z,16.38
2022-08-17T23:30:39.424Z,15.30
2022-08-17T23:33:19.889Z,15.18
2022-08-17T23:35:46.999Z,14.23
2022-08-17T23:38:14.329Z,15.23
2022-08-17T23:40:41.628Z,14.60
2022-08-17T23:43:23.416Z,14.70
2022-08-17T23:46:00.783Z,15.80
2022-08-17T23:48:35.043Z,14.15
2022-08-17T23:51:19.079Z,14.20
2022-08-17T23:53:58.229Z,14.55
2022-08-17T23:56:26.014Z,15.52
2022-08-17T23:58:55.404Z,14.07
